Time;durP1;ratioP1;P1;durP2;ratioP2;P2;SDS_P1;SDS_P2;PMS_P1;PMS_P2;Temp;Humidity;BMP_temperature;BMP_pressure;BME280_temperature;BME280_humidity;BME280_pressure;Samples;Min_cycle;Max_cycle;Signal;HPM_P1;HPM_P2
2021/12/07 00:00:40;;;;;;;;;;;;;;;1.16;96.99;98657.65;1667696;84;20174;-63
2021/12/07 00:03:08;;;;;;;;;;;;;;;1.17;97.12;98670.15;1670903;84;20437;-65
2021/12/07 00:05:34;;;;;;;;;;;;;;;1.18;97.28;98666.87;1672717;84;20144;-64
2021/12/07 00:08:01;;;;;;;;;;;;;;;1.18;97.24;98667.69;1652951;84;21057;-65
2021/12/07 00:10:29;;;;;;;;;;;;;;;1.17;97.21;98660.65;1676670;84;20632;-67
2021/12/07 00:12:55;;;;;;;;;;;;;;;1.15;97.07;98651.15;1671451;84;20210;-63
2021/12/07 00:15:23;;;;;;;;;;;;;;;1.11;96.99;98648.17;1647700;86;20537;-65
2021/12/07 00:17:52;;;;;;;;;;;;;;;1.11;97.01;98663.66;1650788;84;20235;-65
2021/12/07 00:20:19;;;;;;;;;;;;;;;1.10;97.00;98657.42;1671583;84;21152;-65
2021/12/07 00:22:46;;;;;;;;;;;;;;;1.07;96.94;98659.33;1675804;84;20753;-66
2021/12/07 00:25:14;;;;;;;;;;;;;;;1.07;96.96;98663.41;1667420;84;20148;-67
2021/12/07 00:27:41;;;;;;;;;;;;;;;1.06;97.01;98673.97;1645810;85;20205;-66
2021/12/07 00:30:08;;;;;;;;;;;;;;;1.06;97.12;98675.33;1664626;85;20161;-65
2021/12/07 00:32:41;;;;;;;;;;;;;;;1.06;97.13;98670.72;1670295;84;21984;-65
2021/12/07 00:35:24;;;;;;;;;;;;;;;1.05;97.07;98669.65;1675761;84;20140;-64
2021/12/07 00:37:42;;;;;;;;;;;;;;;1.05;97.11;98668.29;1668192;84;20143;-65
2021/12/07 00:40:10;;;;;;;;;;;;;;;1.06;97.26;98669.91;1676994;83;20277;-66
2021/12/07 00:42:38;;;;;;;;;;;;;;;1.07;97.36;98666.94;1652551;85;20214;-64
2021/12/07 00:45:05;;;;;;;;;;;;;;;1.10;97.47;98670.98;1677777;84;21148;-67
2021/12/07 00:47:32;;;;;;;;;;;;;;;1.13;97.54;98668.25;1677975;84;20602;-64
2021/12/07 00:50:01;;;;;;;;;;;;;;;1.14;97.64;98678.85;1665575;84;20151;-63
2021/12/07 00:52:27;;;;;;;;;;;;;;;1.18;97.72;98687.22;1638759;85;20164;-62
2021/12/07 00:54:54;;;;;;;;;;;;;;;1.21;97.75;98682.63;1667998;84;20952;-63
2021/12/07 00:57:21;;;;;;;;;;;;;;;1.23;97.74;98675.55;1675013;84;21165;-65
2021/12/07 00:59:47;;;;;;;;;;;;;;;1.20;97.61;98666.05;1622682;87;20182;-64
2021/12/07 01:02:14;;;;;;;;;;;;;;;1.12;97.50;98668.81;1672513;84;20182;-61
2021/12/07 01:04:50;;;;;;;;;;;;;;;1.10;97.59;98673.70;1645029;85;20168;-65
2021/12/07 01:07:23;;;;;;;;;;;;;;;1.12;97.75;98666.63;1611050;87;20176;-64
2021/12/07 01:24:39;;;;;;;;;;;;;;;1.12;97.72;98652.53;1657866;84;21141;-67
2021/12/07 01:25:56;;;;;;;;;;;;;;;1.20;97.93;98663.34;1663842;84;20206;-66
2021/12/07 01:28:38;;;;;;;;;;;;;;;1.14;97.84;98670.70;1635117;84;20471;-63
2021/12/07 01:31:01;;;;;;;;;;;;;;;1.15;98.02;98666.89;1671203;84;20140;-66
2021/12/07 01:33:57;;;;;;;;;;;;;;;1.18;98.15;98663.62;1672765;84;20163;-63
2021/12/07 01:36:22;;;;;;;;;;;;;;;1.22;98.22;98669.30;1659369;84;21177;-64
2021/12/07 01:59:31;;;;;;;;;;;;;;;1.35;98.23;98682.02;1651661;84;20146;-65
2021/12/07 02:00:17;;;;;;;;;;;;;;;1.36;98.22;98673.59;1657930;84;20156;-66
2021/12/07 02:02:45;;;;;;;;;;;;;;;1.38;98.17;98671.95;1665100;84;21138;-63
2021/12/07 02:05:12;;;;;;;;;;;;;;;1.39;98.14;98669.48;1672083;84;20151;-65
2021/12/07 02:07:39;;;;;;;;;;;;;;;1.37;98.10;98664.34;1662437;84;20249;-64
2021/12/07 02:10:07;;;;;;;;;;;;;;;1.36;98.09;98668.70;1664770;84;20172;-63
2021/12/07 02:12:43;;;;;;;;;;;;;;;1.36;97.98;98670.88;1668363;84;20211;-63
2021/12/07 02:15:05;;;;;;;;;;;;;;;1.36;97.90;98672.77;1660238;84;21174;-64
2021/12/07 02:17:33;;;;;;;;;;;;;;;1.34;97.88;98674.41;1649498;85;20174;-64
2021/12/07 02:19:59;;;;;;;;;;;;;;;1.33;97.90;98673.59;1624549;85;20142;-65
2021/12/07 02:22:25;;;;;;;;;;;;;;;1.32;97.86;98677.41;1627554;84;20523;-65
2021/12/07 02:24:52;;;;;;;;;;;;;;;1.31;97.76;98687.98;1628614;86;20158;-64
2021/12/07 02:27:18;;;;;;;;;;;;;;;1.28;97.69;98691.25;1641000;86;21123;-63
2021/12/07 02:29:44;;;;;;;;;;;;;;;1.25;97.60;98698.60;1661831;84;20139;-63
2021/12/07 02:32:11;;;;;;;;;;;;;;;1.20;97.52;98702.16;1658655;84;20176;-64
2021/12/07 02:34:42;;;;;;;;;;;;;;;1.17;97.57;98701.36;1647410;85;20588;-63
2021/12/07 02:37:08;;;;;;;;;;;;;;;1.15;97.61;98699.46;1648300;84;20136;-65
2021/12/07 02:39:37;;;;;;;;;;;;;;;1.12;97.54;98694.59;1636208;86;20615;-66
2021/12/07 02:42:05;;;;;;;;;;;;;;;1.09;97.46;98693.80;1668582;84;20161;-66
2021/12/07 02:44:33;;;;;;;;;;;;;;;1.08;97.44;98691.62;1667592;84;20151;-67
2021/12/07 02:46:59;;;;;;;;;;;;;;;1.04;97.37;98686.47;1617220;85;20198;-63
2021/12/07 02:49:26;;;;;;;;;;;;;;;1.00;97.34;98685.95;1654017;84;20448;-67
2021/12/07 02:51:52;;;;;;;;;;;;;;;0.95;97.39;98678.64;1666503;84;21163;-64
2021/12/07 02:54:21;;;;;;;;;;;;;;;0.97;97.62;98683.25;1660420;84;20283;-65
2021/12/07 02:56:48;;;;;;;;;;;;;;;0.98;97.73;98682.16;1671582;84;20171;-65
2021/12/07 02:59:17;;;;;;;;;;;;;;;0.99;97.70;98678.91;1671785;84;20148;-66
2021/12/07 03:01:54;;;;;;;;;;;;;;;0.96;97.74;98690.57;1666131;84;20163;-65
2021/12/07 03:04:22;;;;;;;;;;;;;;;0.99;98.05;98693.27;1675353;84;21882;-65
2021/12/07 03:10:05;;;;;;;;;;;;;;;1.00;98.15;98676.45;1635767;85;20148;-65
2021/12/07 03:25:57;;;;;;;;;;;;;;;0.97;98.20;98671.84;1636913;85;20175;-67
2021/12/07 03:26:10;;;;;;;;;;;;;;;1.06;98.67;98683.47;1661110;84;20144;-67
2021/12/07 03:28:43;;;;;;;;;;;;;;;1.10;98.75;98676.41;1656619;84;20170;-63
2021/12/07 03:31:12;;;;;;;;;;;;;;;1.14;98.75;98672.06;1658326;85;21073;-65
2021/12/07 03:33:39;;;;;;;;;;;;;;;1.13;98.61;98681.28;1671510;84;20426;-64
2021/12/07 03:36:08;;;;;;;;;;;;;;;1.16;98.84;98687.50;1650353;84;20142;-64
2021/12/07 03:38:34;;;;;;;;;;;;;;;1.19;98.98;98693.76;1666597;84;20212;-63
2021/12/07 03:41:00;;;;;;;;;;;;;;;1.20;98.95;98694.02;1664283;84;20250;-64
2021/12/07 03:43:28;;;;;;;;;;;;;;;1.22;98.96;98692.38;1671996;84;21806;-66
2021/12/07 03:45:54;;;;;;;;;;;;;;;1.23;98.92;98702.70;1653720;85;20137;-63
2021/12/07 03:48:21;;;;;;;;;;;;;;;1.22;98.85;98696.45;1668212;84;20441;-63
2021/12/07 03:50:47;;;;;;;;;;;;;;;1.23;98.83;98700.78;1677065;84;20179;-62
2021/12/07 03:53:13;;;;;;;;;;;;;;;1.23;98.78;98706.20;1675653;84;20263;-63
2021/12/07 03:55:40;;;;;;;;;;;;;;;1.23;98.75;98708.13;1656684;85;20694;-65
2021/12/07 03:58:07;;;;;;;;;;;;;;;1.21;98.72;98720.05;1667139;84;20168;-63
2021/12/07 04:00:37;;;;;;;;;;;;;;;1.23;98.73;98721.70;1648561;84;20149;-65
2021/12/07 04:03:07;;;;;;;;;;;;;;;1.23;98.78;98725.20;1640896;85;20498;-64
2021/12/07 04:05:33;;;;;;;;;;;;;;;1.25;98.81;98729.00;1661804;85;20172;-62
2021/12/07 04:07:59;;;;;;;;;;;;;;;1.26;98.80;98729.28;1649070;85;21025;-62
2021/12/07 04:10:26;;;;;;;;;;;;;;;1.26;98.78;98730.64;1673775;84;20444;-63
2021/12/07 04:12:53;;;;;;;;;;;;;;;1.26;98.84;98730.64;1665160;84;20190;-65
2021/12/07 04:15:20;;;;;;;;;;;;;;;1.27;98.89;98726.83;1677876;84;20471;-62
2021/12/07 04:17:46;;;;;;;;;;;;;;;1.28;98.93;98725.19;1674127;84;20132;-64
2021/12/07 04:20:17;;;;;;;;;;;;;;;1.30;98.90;98728.98;1644363;84;21171;-62
2021/12/07 04:22:45;;;;;;;;;;;;;;;1.31;98.92;98722.48;1665519;84;20137;-62
2021/12/07 04:25:12;;;;;;;;;;;;;;;1.31;98.82;98730.63;1673198;84;20435;-63
2021/12/07 04:27:39;;;;;;;;;;;;;;;1.30;98.69;98727.09;1665085;84;20151;-65
2021/12/07 04:30:14;;;;;;;;;;;;;;;1.24;98.42;98716.52;1653763;84;20166;-63
2021/12/07 04:32:41;;;;;;;;;;;;;;;1.15;98.25;98717.64;1645526;86;21156;-63
2021/12/07 04:35:08;;;;;;;;;;;;;;;1.08;98.25;98724.18;1616720;85;20174;-63
2021/12/07 04:37:34;;;;;;;;;;;;;;;1.08;98.53;98730.97;1674547;84;20245;-64
2021/12/07 04:40:00;;;;;;;;;;;;;;;1.13;98.70;98739.62;1640587;84;20471;-66
2021/12/07 04:42:26;;;;;;;;;;;;;;;1.17;98.78;98734.47;1614466;87;20173;-67
2021/12/07 04:44:58;;;;;;;;;;;;;;;1.20;98.76;98733.38;1598958;87;21058;-66
2021/12/07 04:48:26;;;;;;;;;;;;;;;1.19;98.58;98739.90;1664217;84;20191;-65
2021/12/07 04:57:43;;;;;;;;;;;;;;;1.23;98.52;98755.62;1663251;84;21176;-63
2021/12/07 05:00:18;;;;;;;;;;;;;;;1.25;98.65;98759.67;1640069;86;20173;-63
2021/12/07 05:02:51;;;;;;;;;;;;;;;1.28;98.67;98762.40;1653564;84;20418;-65
2021/12/07 05:05:16;;;;;;;;;;;;;;;1.28;98.49;98759.69;1656909;85;20459;-63
2021/12/07 05:07:48;;;;;;;;;;;;;;;1.23;98.25;98755.06;1667122;84;20234;-64
2021/12/07 05:12:54;;;;;;;;;;;;;;;1.10;98.16;98759.19;1652389;84;20208;-63
2021/12/07 05:15:19;;;;;;;;;;;;;;;1.06;98.25;98765.70;1669708;84;20172;-64
2021/12/07 05:34:28;;;;;;;;;;;;;;;1.05;98.36;98744.27;1666029;84;20286;-64
2021/12/07 05:39:17;;;;;;;;;;;;;;;0.97;98.84;98771.44;1669436;84;20145;-63
2021/12/07 05:41:43;;;;;;;;;;;;;;;0.96;98.80;98773.33;1670417;84;20253;-65
2021/12/07 05:44:09;;;;;;;;;;;;;;;0.96;98.77;98779.28;1670043;84;20152;-64
2021/12/07 05:46:35;;;;;;;;;;;;;;;0.96;98.81;98780.64;1673224;84;20242;-64
2021/12/07 05:49:01;;;;;;;;;;;;;;;0.96;98.80;98782.00;1673042;84;21122;-66
2021/12/07 05:51:27;;;;;;;;;;;;;;;0.96;98.87;98776.57;1665954;84;20153;-65
2021/12/07 05:53:53;;;;;;;;;;;;;;;0.96;98.91;98765.19;1676070;84;20411;-65
2021/12/07 05:56:20;;;;;;;;;;;;;;;0.97;98.92;98751.87;1670987;84;20227;-64
2021/12/07 05:58:46;;;;;;;;;;;;;;;0.94;98.82;98746.19;1672522;84;20188;-62
2021/12/07 06:01:12;;;;;;;;;;;;;;;0.93;98.83;98739.97;1653225;84;21197;-63
2021/12/07 06:03:38;;;;;;;;;;;;;;;0.89;98.82;98730.73;1649937;84;20179;-62
2021/12/07 06:06:05;;;;;;;;;;;;;;;0.88;98.93;98728.30;1666492;84;20294;-65
2021/12/07 06:08:31;;;;;;;;;;;;;;;0.84;98.90;98731.57;1650067;85;20538;-63
2021/12/07 06:10:57;;;;;;;;;;;;;;;0.78;98.85;98738.10;1664141;84;20172;-63
2021/12/07 06:13:24;;;;;;;;;;;;;;;0.74;98.89;98743.79;1652673;84;21051;-62
2021/12/07 06:15:50;;;;;;;;;;;;;;;0.69;98.94;98747.33;1669190;84;20184;-62
2021/12/07 06:18:17;;;;;;;;;;;;;;;0.66;99.00;98754.66;1670840;84;20465;-62
2021/12/07 06:20:43;;;;;;;;;;;;;;;0.70;99.27;98754.94;1672597;84;20152;-65
2021/12/07 06:23:11;;;;;;;;;;;;;;;0.77;99.46;98765.50;1661157;84;20169;-64
2021/12/07 06:25:37;;;;;;;;;;;;;;;0.80;99.33;98760.31;1667343;84;20777;-63
2021/12/07 06:28:04;;;;;;;;;;;;;;;0.75;99.22;98761.67;1667485;84;20186;-62
2021/12/07 06:30:32;;;;;;;;;;;;;;;0.72;99.28;98762.23;1666966;84;20223;-66
2021/12/07 06:32:58;;;;;;;;;;;;;;;0.73;99.37;98759.80;1652305;84;20184;-65
2021/12/07 06:35:24;;;;;;;;;;;;;;;0.75;99.44;98767.10;1643986;85;20193;-62
2021/12/07 06:37:50;;;;;;;;;;;;;;;0.77;99.41;98767.65;1657204;84;21126;-64
2021/12/07 06:40:16;;;;;;;;;;;;;;;0.78;99.47;98766.58;1660877;84;20506;-65
2021/12/07 06:42:45;;;;;;;;;;;;;;;0.80;99.47;98771.73;1647926;84;20151;-63
2021/12/07 06:45:12;;;;;;;;;;;;;;;0.77;99.48;98773.64;1670658;84;20179;-64
2021/12/07 06:47:39;;;;;;;;;;;;;;;0.79;99.62;98775.51;1642047;84;20657;-66
2021/12/07 06:50:07;;;;;;;;;;;;;;;0.85;99.77;98775.80;1676527;84;21254;-65
2021/12/07 06:52:34;;;;;;;;;;;;;;;0.94;99.90;98778.73;1643805;85;20266;-65
2021/12/07 06:55:01;;;;;;;;;;;;;;;1.01;99.96;98779.84;1650963;85;20145;-65
2021/12/07 06:57:27;;;;;;;;;;;;;;;1.06;99.94;98775.20;1663992;84;20138;-65
2021/12/07 06:59:54;;;;;;;;;;;;;;;1.11;99.92;98785.22;1665539;84;20172;-65
2021/12/07 07:02:24;;;;;;;;;;;;;;;1.11;99.71;98788.50;1663458;84;21139;-66
2021/12/07 07:04:50;;;;;;;;;;;;;;;1.08;99.47;98790.67;1665915;84;20135;-65
2021/12/07 07:07:18;;;;;;;;;;;;;;;1.04;99.19;98787.42;1675126;84;20223;-66
2021/12/07 07:09:46;;;;;;;;;;;;;;;0.97;99.15;98789.86;1671767;84;20440;-65
2021/12/07 07:12:12;;;;;;;;;;;;;;;1.02;99.47;98794.49;1652046;84;20234;-67
2021/12/07 07:14:40;;;;;;;;;;;;;;;1.03;99.25;98797.99;1651289;84;20173;-67
2021/12/07 07:17:06;;;;;;;;;;;;;;;0.96;98.95;98796.92;1602750;87;20153;-64
2021/12/07 07:19:34;;;;;;;;;;;;;;;0.92;98.87;98802.64;1601518;87;20137;-64
2021/12/07 07:22:02;;;;;;;;;;;;;;;0.89;98.88;98807.27;1610705;87;20154;-66
2021/12/07 07:24:29;;;;;;;;;;;;;;;0.86;98.83;98814.03;1613297;87;20192;-63
2021/12/07 07:26:56;;;;;;;;;;;;;;;0.84;98.86;98820.27;1661146;84;21213;-62
2021/12/07 07:29:22;;;;;;;;;;;;;;;0.83;98.89;98819.47;1668254;84;20171;-67
2021/12/07 07:31:48;;;;;;;;;;;;;;;0.83;99.00;98822.19;1665350;84;20296;-64
2021/12/07 07:34:14;;;;;;;;;;;;;;;0.83;98.95;98826.79;1676182;84;20214;-65
2021/12/07 07:36:41;;;;;;;;;;;;;;;0.83;98.98;98827.61;1672345;84;20138;-63
2021/12/07 07:39:07;;;;;;;;;;;;;;;0.87;99.08;98825.14;1640732;84;21206;-64
2021/12/07 07:41:36;;;;;;;;;;;;;;;0.90;99.05;98828.69;1648102;84;20533;-65
2021/12/07 07:44:05;;;;;;;;;;;;;;;0.87;98.80;98832.48;1664827;84;20207;-63
2021/12/07 07:46:33;;;;;;;;;;;;;;;0.88;98.98;98833.57;1673161;84;20275;-63
2021/12/07 07:49:00;;;;;;;;;;;;;;;0.85;98.79;98826.77;1668141;84;20499;-65
2021/12/07 07:51:26;;;;;;;;;;;;;;;0.85;98.81;98830.05;1663787;84;21182;-66
2021/12/07 07:53:54;;;;;;;;;;;;;;;0.86;98.85;98833.02;1662388;84;20143;-63
2021/12/07 07:56:22;;;;;;;;;;;;;;;0.85;98.73;98834.91;1675636;84;20158;-66
2021/12/07 07:58:49;;;;;;;;;;;;;;;0.83;98.63;98833.57;1670168;84;20487;-62
2021/12/07 08:01:16;;;;;;;;;;;;;;;0.83;98.68;98835.75;1665302;84;21301;-63
2021/12/07 08:03:42;;;;;;;;;;;;;;;0.82;98.65;98832.75;1663515;84;21840;-65
2021/12/07 08:06:08;;;;;;;;;;;;;;;0.82;98.64;98830.59;1657037;84;20147;-65
2021/12/07 08:08:35;;;;;;;;;;;;;;;0.83;98.72;98830.33;1668558;84;20203;-63
2021/12/07 08:11:03;;;;;;;;;;;;;;;0.87;98.71;98829.21;1637703;85;20218;-63
2021/12/07 08:13:31;;;;;;;;;;;;;;;0.83;98.64;98830.33;1662265;84;20601;-63
2021/12/07 08:16:00;;;;;;;;;;;;;;;0.84;98.73;98820.27;1666798;85;21156;-63
2021/12/07 08:18:26;;;;;;;;;;;;;;;0.85;98.67;98816.48;1635735;84;20182;-62
2021/12/07 08:20:53;;;;;;;;;;;;;;;0.85;98.55;98813.77;1676515;84;20153;-63
2021/12/07 08:23:20;;;;;;;;;;;;;;;0.84;98.42;98817.55;1643226;84;20506;-62
2021/12/07 08:25:47;;;;;;;;;;;;;;;0.84;98.50;98817.55;1666510;84;20180;-64
2021/12/07 08:28:19;;;;;;;;;;;;;;;0.85;98.47;98822.70;1679408;84;21038;-63
2021/12/07 08:30:44;;;;;;;;;;;;;;;0.81;98.32;98832.48;1672628;84;20143;-63
2021/12/07 08:33:10;;;;;;;;;;;;;;;0.79;98.33;98833.30;1670736;84;20173;-63
2021/12/07 08:35:39;;;;;;;;;;;;;;;0.78;98.32;98833.57;1646618;84;20239;-62
2021/12/07 08:38:05;;;;;;;;;;;;;;;0.76;98.27;98837.09;1625650;87;20506;-63
2021/12/07 08:40:34;;;;;;;;;;;;;;;0.74;98.30;98836.01;1627575;86;21151;-62
2021/12/07 08:43:00;;;;;;;;;;;;;;;0.78;98.49;98830.33;1661865;84;20453;-63
2021/12/07 08:45:30;;;;;;;;;;;;;;;0.82;98.49;98829.24;1668618;84;20160;-64
2021/12/07 08:47:58;;;;;;;;;;;;;;;0.83;98.39;98830.86;1671519;84;20416;-62
2021/12/07 08:50:25;;;;;;;;;;;;;;;0.86;98.41;98834.37;1663928;84;20251;-63
2021/12/07 08:52:53;;;;;;;;;;;;;;;0.90;98.46;98834.12;1666035;84;21742;-63
2021/12/07 09:00:49;;;;;;;;;;;;;;;0.84;97.89;98833.83;1634611;84;20158;-64
2021/12/07 09:03:15;;;;;;;;;;;;;;;0.80;97.81;98832.77;1686332;84;20203;-64
2021/12/07 09:05:41;;;;;;;;;;;;;;;0.79;97.97;98823.80;1665138;84;21140;-63
2021/12/07 09:08:08;;;;;;;;;;;;;;;0.81;97.89;98822.17;1667024;84;20177;-66
2021/12/07 09:10:36;;;;;;;;;;;;;;;0.80;97.82;98816.48;1672137;84;20139;-64
2021/12/07 09:13:02;;;;;;;;;;;;;;;0.81;97.90;98814.03;1682187;84;20461;-65
2021/12/07 09:15:29;;;;;;;;;;;;;;;0.83;97.87;98817.30;1665040;84;20220;-64
2021/12/07 09:17:55;;;;;;;;;;;;;;;0.84;97.76;98814.30;1654437;85;21946;-64
2021/12/07 09:20:22;;;;;;;;;;;;;;;0.83;97.70;98804.55;1674346;84;20972;-64
2021/12/07 09:22:48;;;;;;;;;;;;;;;0.80;97.52;98806.99;1650628;85;20180;-64
2021/12/07 09:25:15;;;;;;;;;;;;;;;0.80;97.62;98801.56;1643353;86;20691;-65
2021/12/07 09:27:42;;;;;;;;;;;;;;;0.84;97.73;98797.20;1643734;85;20161;-63
2021/12/07 09:30:10;;;;;;;;;;;;;;;0.87;97.67;98791.80;1664453;84;22023;-64
2021/12/07 09:32:36;;;;;;;;;;;;;;;0.84;97.51;98788.53;1670375;84;20137;-65
2021/12/07 09:35:06;;;;;;;;;;;;;;;0.83;97.55;98790.98;1663578;84;20222;-63
2021/12/07 09:37:32;;;;;;;;;;;;;;;0.84;97.61;98787.17;1669266;84;20172;-66
2021/12/07 09:40:01;;;;;;;;;;;;;;;0.88;97.72;98794.23;1663150;84;20149;-64
2021/12/07 09:42:27;;;;;;;;;;;;;;;0.93;97.70;98792.88;1669750;84;20741;-64
2021/12/07 09:44:53;;;;;;;;;;;;;;;0.92;97.43;98787.72;1657379;84;20170;-65
2021/12/07 09:47:20;;;;;;;;;;;;;;;0.86;97.22;98778.77;1660692;84;20167;-64
2021/12/07 09:49:48;;;;;;;;;;;;;;;0.77;97.20;98778.50;1610649;87;20174;-65
2021/12/07 09:52:14;;;;;;;;;;;;;;;0.71;97.35;98770.11;1612434;87;20137;-65
2021/12/07 09:54:41;;;;;;;;;;;;;;;0.68;97.49;98773.37;1592559;88;21137;-65
2021/12/07 09:57:07;;;;;;;;;;;;;;;0.67;97.69;98777.15;1617232;87;20140;-65
2021/12/07 09:59:33;;;;;;;;;;;;;;;0.71;97.90;98776.35;1620892;87;20192;-65
2021/12/07 10:01:59;;;;;;;;;;;;;;;0.77;98.06;98772.28;1588004;87;20323;-64
2021/12/07 10:04:27;;;;;;;;;;;;;;;0.83;98.17;98776.60;1615732;87;20192;-64
2021/12/07 10:06:55;;;;;;;;;;;;;;;0.85;97.94;98777.16;1591224;87;21360;-65
2021/12/07 10:09:21;;;;;;;;;;;;;;;0.78;97.82;98772.54;1631283;86;20150;-65
2021/12/07 10:11:54;;;;;;;;;;;;;;;0.76;97.88;98776.06;1628008;86;20154;-66
2021/12/07 10:14:20;;;;;;;;;;;;;;;0.71;98.59;98776.35;1626773;87;20174;-64
2021/12/07 10:16:49;;;;;;;;;;;;;;;0.66;98.97;98775.53;1621594;86;20526;-66
2021/12/07 10:19:30;;;;;;;;;;;;;;;0.62;99.04;98779.86;1662010;84;21201;-65
2021/12/07 10:22:10;;;;;;;;;;;;;;;0.66;99.37;98781.78;1655404;84;20472;-65
2021/12/07 10:24:45;;;;;;;;;;;;;;;0.66;99.26;98789.09;1667813;84;20143;-64
2021/12/07 10:27:11;;;;;;;;;;;;;;;0.70;99.46;98785.55;1669654;84;20187;-66
2021/12/07 10:29:39;;;;;;;;;;;;;;;0.71;99.10;98779.59;1672822;84;20221;-63
2021/12/07 10:32:07;;;;;;;;;;;;;;;0.65;98.93;98769.84;1664402;84;21848;-63
2021/12/07 10:34:36;;;;;;;;;;;;;;;0.63;99.07;98768.77;1673423;84;20143;-66
2021/12/07 10:37:10;;;;;;;;;;;;;;;0.60;99.03;98760.63;1650449;84;20165;-66
2021/12/07 10:39:42;;;;;;;;;;;;;;;0.58;99.34;98757.92;1659444;84;20467;-64
2021/12/07 10:42:10;;;;;;;;;;;;;;;0.56;99.68;98756.81;1627324;86;20141;-65
2021/12/07 10:44:39;;;;;;;;;;;;;;;0.57;99.86;98762.52;1622375;86;21134;-66
2021/12/07 10:47:13;;;;;;;;;;;;;;;0.62;100.00;98760.88;1613560;87;20261;-64
2021/12/07 10:49:46;;;;;;;;;;;;;;;0.60;99.48;98761.98;1631102;86;20178;-65
2021/12/07 10:52:32;;;;;;;;;;;;;;;0.56;99.31;98765.52;1640937;86;20134;-66
2021/12/07 10:55:05;;;;;;;;;;;;;;;0.55;99.27;98770.11;1637187;86;20206;-65
2021/12/07 10:57:41;;;;;;;;;;;;;;;0.62;99.33;98779.33;1609079;86;21244;-65
2021/12/07 11:00:28;;;;;;;;;;;;;;;0.67;99.46;98790.70;1663319;84;20141;-64
2021/12/07 11:02:57;;;;;;;;;;;;;;;0.73;99.39;98789.08;1664681;84;20175;-65
2021/12/07 11:05:27;;;;;;;;;;;;;;;0.73;99.21;98793.14;1672839;84;20179;-64
2021/12/07 11:07:56;;;;;;;;;;;;;;;0.69;98.97;98796.14;1660877;84;20166;-66
2021/12/07 11:10:31;;;;;;;;;;;;;;;0.73;99.18;98809.98;1636135;84;21000;-67
2021/12/07 11:13:15;;;;;;;;;;;;;;;0.76;99.11;98805.89;1651010;85;20209;-66
2021/12/07 11:15:41;;;;;;;;;;;;;;;0.81;99.15;98809.97;1632999;86;20139;-64
2021/12/07 11:18:08;;;;;;;;;;;;;;;0.77;98.81;98802.91;1675501;84;20366;-64
2021/12/07 11:20:34;;;;;;;;;;;;;;;0.77;98.76;98793.98;1655840;85;20266;-65
2021/12/07 11:23:06;;;;;;;;;;;;;;;0.78;98.78;98788.81;1669248;84;21739;-64
2021/12/07 11:31:17;;;;;;;;;;;;;;;0.75;98.45;98754.11;1660817;84;20140;-66
2021/12/07 11:33:44;;;;;;;;;;;;;;;0.72;98.40;98758.98;1649756;85;20176;-64
2021/12/07 11:36:16;;;;;;;;;;;;;;;0.70;98.23;98763.06;1661765;84;21145;-66
2021/12/07 11:38:43;;;;;;;;;;;;;;;0.69;98.31;98772.27;1664908;84;21706;-65
2021/12/07 11:41:18;;;;;;;;;;;;;;;0.69;98.20;98762.25;1661041;84;20455;-64
2021/12/07 11:43:59;;;;;;;;;;;;;;;0.68;98.22;98770.09;1673444;84;20247;-63
2021/12/07 11:46:27;;;;;;;;;;;;;;;0.67;98.12;98770.37;1665924;84;20151;-65
2021/12/07 11:49:20;;;;;;;;;;;;;;;0.65;98.08;98765.22;1669204;84;21184;-66
2021/12/07 11:51:49;;;;;;;;;;;;;;;0.64;98.04;98766.85;1643561;85;20327;-64
2021/12/07 11:54:15;;;;;;;;;;;;;;;0.59;97.85;98766.31;1670580;84;20436;-65
2021/12/07 11:56:44;;;;;;;;;;;;;;;0.55;97.93;98768.75;1670532;84;21045;-64
2021/12/07 11:59:11;;;;;;;;;;;;;;;0.58;98.14;98771.48;1657573;84;20196;-64
2021/12/07 12:01:39;;;;;;;;;;;;;;;0.55;97.92;98773.36;1671751;84;21153;-64
2021/12/07 12:04:05;;;;;;;;;;;;;;;0.55;98.02;98772.82;1670730;84;21258;-66
2021/12/07 12:06:31;;;;;;;;;;;;;;;0.57;98.17;98773.91;1648197;85;20145;-68
2021/12/07 12:09:00;;;;;;;;;;;;;;;0.61;98.24;98780.42;1669839;84;20503;-64
2021/12/07 12:11:36;;;;;;;;;;;;;;;0.63;98.10;98789.64;1656745;84;20164;-65
2021/12/07 12:14:12;;;;;;;;;;;;;;;0.53;97.68;98787.75;1676142;84;21805;-66
2021/12/07 12:17:00;;;;;;;;;;;;;;;0.53;97.89;98790.46;1667004;84;20196;-67
2021/12/07 12:19:53;;;;;;;;;;;;;;;0.55;97.98;98801.83;1679349;84;20170;-65
2021/12/07 12:22:23;;;;;;;;;;;;;;;0.55;97.87;98808.61;1658947;84;20147;-66
2021/12/07 12:24:55;;;;;;;;;;;;;;;0.50;97.67;98804.53;1658883;85;20267;-65
2021/12/07 12:27:27;;;;;;;;;;;;;;;0.47;97.66;98810.79;1669891;84;20748;-64
2021/12/07 12:29:55;;;;;;;;;;;;;;;0.44;97.61;98805.91;1654096;84;20180;-64
2021/12/07 12:32:36;;;;;;;;;;;;;;;0.42;97.59;98804.55;1647461;84;20175;-65
2021/12/07 12:35:07;;;;;;;;;;;;;;;0.38;97.57;98806.15;1665892;84;21329;-65
2021/12/07 12:37:33;;;;;;;;;;;;;;;0.38;97.73;98798.84;1658091;84;20491;-65
2021/12/07 12:40:06;;;;;;;;;;;;;;;0.40;97.71;98788.55;1673801;84;21252;-65
2021/12/07 12:42:44;;;;;;;;;;;;;;;0.38;97.60;98783.94;1677208;84;20259;-65
2021/12/07 12:45:22;;;;;;;;;;;;;;;0.41;97.74;98794.23;1650022;85;20148;-65
2021/12/07 12:48:10;;;;;;;;;;;;;;;0.41;97.68;98795.59;1650314;84;20179;-65
2021/12/07 12:50:40;;;;;;;;;;;;;;;0.42;97.58;98785.56;1634392;85;20143;-65
2021/12/07 12:53:08;;;;;;;;;;;;;;;0.40;97.57;98791.27;1648651;85;21939;-63
2021/12/07 12:55:46;;;;;;;;;;;;;;;0.43;97.62;98788.00;1670464;84;20179;-64
2021/12/07 12:58:21;;;;;;;;;;;;;;;0.44;97.50;98798.31;1675613;84;20273;-64
2021/12/07 13:01:10;;;;;;;;;;;;;;;0.32;96.89;98793.16;1668333;84;20144;-66
2021/12/07 13:03:50;;;;;;;;;;;;;;;0.15;97.81;98784.73;1672675;83;20446;-62
2021/12/07 13:06:37;;;;;;;;;;;;;;;0.07;98.46;98779.85;1667950;84;21154;-65
2021/12/07 13:09:11;;;;;;;;;;;;;;;0.02;98.78;98777.12;1662657;84;20173;-67
2021/12/07 13:11:43;;;;;;;;;;;;;;;-0.03;99.01;98775.20;1633103;85;20181;-65
2021/12/07 13:14:15;;;;;;;;;;;;;;;-0.03;99.20;98769.25;1680687;84;20149;-65
2021/12/07 13:17:05;;;;;;;;;;;;;;;-0.01;99.45;98779.29;1681062;84;20190;-65
2021/12/07 13:19:32;;;;;;;;;;;;;;;0.00;99.50;98778.75;1652019;85;21181;-65
2021/12/07 13:22:04;;;;;;;;;;;;;;;0.03;99.56;98770.09;1665346;84;20316;-64
2021/12/07 13:24:39;;;;;;;;;;;;;;;-0.03;99.25;98773.31;1658064;84;20136;-63
2021/12/07 13:27:13;;;;;;;;;;;;;;;-0.06;99.29;98775.21;1668030;84;20336;-65
2021/12/07 13:29:40;;;;;;;;;;;;;;;-0.04;99.27;98781.19;1681131;84;20255;-65
2021/12/07 13:32:07;;;;;;;;;;;;;;;-0.06;99.08;98778.45;1644559;85;21285;-65
2021/12/07 13:34:35;;;;;;;;;;;;;;;-0.10;99.16;98774.11;1675939;84;20220;-65
2021/12/07 13:37:04;;;;;;;;;;;;;;;-0.12;99.16;98768.16;1671385;84;20151;-65
2021/12/07 13:39:37;;;;;;;;;;;;;;;-0.11;99.00;98773.84;1667103;84;21049;-66
2021/12/07 13:42:22;;;;;;;;;;;;;;;-0.11;98.96;98775.73;1658612;84;20448;-64
2021/12/07 13:45:02;;;;;;;;;;;;;;;-0.10;98.93;98786.86;1676869;84;21058;-64
2021/12/07 13:47:30;;;;;;;;;;;;;;;-0.09;99.05;98787.94;1665710;84;20169;-65
2021/12/07 13:50:03;;;;;;;;;;;;;;;-0.09;99.08;98793.89;1669162;84;20141;-64
2021/12/07 13:52:31;;;;;;;;;;;;;;;-0.09;99.14;98792.00;1656680;85;20204;-65
2021/12/07 13:54:59;;;;;;;;;;;;;;;-0.05;99.19;98793.08;1650582;84;20171;-65
2021/12/07 13:57:29;;;;;;;;;;;;;;;0.01;99.14;98789.03;1672795;84;21175;-64
2021/12/07 14:00:03;;;;;;;;;;;;;;;0.03;99.01;98796.36;1665850;84;20147;-66
2021/12/07 14:02:32;;;;;;;;;;;;;;;0.04;98.84;98799.33;1659489;85;20144;-66
2021/12/07 14:05:08;;;;;;;;;;;;;;;0.02;98.64;98797.45;1673234;84;20177;-65
2021/12/07 14:07:34;;;;;;;;;;;;;;;-0.06;98.16;98794.70;1667536;84;20171;-66
2021/12/07 14:10:19;;;;;;;;;;;;;;;-0.11;98.33;98792.80;1645597;85;21057;-66
2021/12/07 14:12:48;;;;;;;;;;;;;;;-0.20;98.22;98790.33;1653156;85;20160;-66
2021/12/07 14:15:26;;;;;;;;;;;;;;;-0.25;98.79;98813.62;1645648;85;20175;-65
2021/12/07 14:17:59;;;;;;;;;;;;;;;-0.27;98.94;98825.25;1669995;84;20140;-66
2021/12/07 14:20:42;;;;;;;;;;;;;;;-0.28;98.91;98830.40;1665851;84;20495;-65
2021/12/07 14:23:27;;;;;;;;;;;;;;;-0.27;98.76;98830.66;1675696;84;21148;-65
2021/12/07 14:25:59;;;;;;;;;;;;;;;-0.23;98.66;98828.77;1667498;84;20218;-66
2021/12/07 14:28:34;;;;;;;;;;;;;;;-0.27;98.79;98825.25;1678116;84;20216;-65
2021/12/07 14:31:04;;;;;;;;;;;;;;;-0.35;99.61;98832.53;1668927;84;20200;-64
2021/12/07 14:33:30;;;;;;;;;;;;;;;-0.41;100.00;98822.77;1634570;86;20180;-65